X  ZamknijMetar - Lotnicze dane pogodowe     EPKT Katowice International

Temperatura

17°C Temperatura

5°C Punkt rosy

45% Wilgotność



Wiatr

13 km/h

 8 MPH

 4 m/s

 7 KTS



30°
NNE
Obecne warunki

Bezchmurnie Bezchmurnie
Ciśnienie 1008.92 (hPa) - 29.79 (in)
Widoczność 6.2 (mi) - 10 (km)
Lotnisko
Kod lotniska EPKT

Lokalizacja Katowice International 23 (km)

Metar:
EPKT 021730Z 03007KT CAVOK 17/05 Q1009

Czas: 02-06-2020 19:30